Time;durP1;ratioP1;P1;durP2;ratioP2;P2;SDS_P1;SDS_P2;PMS_P1;PMS_P2;Temp;Humidity;BMP_temperature;BMP_pressure;BME280_temperature;BME280_humidity;BME280_pressure;Samples;Min_cycle;Max_cycle;Signal;HPM_P1;HPM_P2
2021/03/12 00:00:28;;;;;;;2.80;2.20;;;9.40;45.50;;;;;;5070582;28;20689;-70
2021/03/12 00:02:53;;;;;;;3.53;1.60;;;9.40;44.60;;;;;;5070381;28;20171;-68
2021/03/12 00:05:19;;;;;;;1.77;1.67;;;9.40;43.70;;;;;;5070574;28;20981;-68
2021/03/12 00:07:45;;;;;;;2.00;1.90;;;9.30;44.50;;;;;;5070356;28;20207;-70
2021/03/12 00:10:17;;;;;;;3.73;2.67;;;9.40;44.00;;;;;;5070199;28;20463;-69
2021/03/12 00:12:42;;;;;;;2.13;1.83;;;9.40;43.80;;;;;;5069742;28;20210;-71
2021/03/12 00:15:11;;;;;;;1.60;1.50;;;9.50;44.00;;;;;;5070616;28;20406;-73
2021/03/12 00:17:37;;;;;;;2.87;1.50;;;9.40;43.30;;;;;;5069933;28;20194;-69
2021/03/12 00:20:15;;;;;;;1.57;1.50;;;9.30;42.70;;;;;;5070543;28;20406;-70
2021/03/12 00:22:43;;;;;;;4.30;2.27;;;9.30;43.20;;;;;;5070070;28;20214;-74
2021/03/12 00:25:12;;;;;;;1.60;1.50;;;9.40;42.10;;;;;;5070304;28;20424;-74
2021/03/12 00:27:39;;;;;;;1.67;1.37;;;9.60;42.60;;;;;;5070400;28;20458;-73
2021/03/12 00:30:07;;;;;;;2.20;1.90;;;9.60;41.30;;;;;;5070851;28;20438;-73
2021/03/12 00:32:34;;;;;;;1.80;1.70;;;9.60;40.80;;;;;;5070480;28;20559;-73
2021/03/12 00:34:59;;;;;;;3.03;1.63;;;9.50;40.90;;;;;;5070421;28;20409;-73
2021/03/12 00:37:25;;;;;;;2.47;1.60;;;9.60;40.80;;;;;;5070073;28;20413;-74
2021/03/12 00:39:51;;;;;;;1.97;1.67;;;9.50;41.00;;;;;;5069212;28;20187;-73
2021/03/12 00:42:17;;;;;;;3.10;1.90;;;9.40;41.70;;;;;;5070338;28;20317;-71
2021/03/12 00:44:43;;;;;;;2.00;1.90;;;9.50;40.50;;;;;;5070230;28;20253;-73
2021/03/12 00:47:09;;;;;;;2.67;1.57;;;9.50;39.40;;;;;;5069918;28;20204;-73
2021/03/12 00:49:34;;;;;;;2.97;1.60;;;9.50;39.70;;;;;;5070245;28;20397;-72
2021/03/12 00:52:00;;;;;;;1.97;1.60;;;9.40;39.80;;;;;;5070170;28;20195;-72
2021/03/12 00:54:25;;;;;;;2.30;2.00;;;9.50;39.00;;;;;;5070364;28;20170;-72
2021/03/12 00:56:51;;;;;;;2.03;1.70;;;9.60;39.70;;;;;;5069956;28;20176;-69
2021/03/12 00:59:16;;;;;;;3.07;1.93;;;9.70;39.00;;;;;;5069847;28;20172;-69
2021/03/12 01:01:42;;;;;;;1.93;1.60;;;9.70;38.50;;;;;;5069902;28;20199;-70
2021/03/12 01:04:08;;;;;;;3.17;2.37;;;9.70;38.80;;;;;;5070288;28;20199;-70
2021/03/12 01:06:34;;;;;;;2.20;1.50;;;9.80;37.60;;;;;;5070144;28;20191;-69
2021/03/12 01:08:59;;;;;;;2.10;1.93;;;9.70;38.50;;;;;;5070060;28;20217;-70
2021/03/12 01:11:25;;;;;;;2.50;1.67;;;9.60;37.50;;;;;;5070055;28;20199;-70
2021/03/12 01:13:50;;;;;;;1.50;1.40;;;9.70;37.70;;;;;;5070303;28;20205;-70
2021/03/12 01:16:16;;;;;;;1.97;1.70;;;9.60;38.00;;;;;;5068822;28;20540;-69
2021/03/12 01:18:41;;;;;;;1.73;1.63;;;9.80;38.00;;;;;;5069946;28;20180;-71
2021/03/12 01:21:07;;;;;;;5.17;2.30;;;9.80;37.70;;;;;;5070022;28;20654;-71
2021/03/12 01:23:33;;;;;;;1.97;1.87;;;9.80;37.40;;;;;;5071837;28;20179;-69
2021/03/12 01:25:58;;;;;;;2.10;1.83;;;9.80;37.90;;;;;;5073511;28;20229;-69
2021/03/12 01:28:24;;;;;;;3.17;1.50;;;9.80;38.50;;;;;;5073405;28;20173;-70
2021/03/12 01:30:50;;;;;;;1.83;1.73;;;9.70;36.40;;;;;;5073486;28;20200;-69
2021/03/12 01:33:16;;;;;;;4.73;2.40;;;9.80;37.30;;;;;;5073535;28;20228;-71
2021/03/12 01:35:42;;;;;;;2.77;1.33;;;9.70;34.90;;;;;;5073388;28;20893;-70
2021/03/12 01:38:09;;;;;;;2.23;1.70;;;9.60;35.70;;;;;;5073117;28;20433;-69
2021/03/12 01:40:38;;;;;;;3.30;1.90;;;9.70;35.40;;;;;;5073299;28;20171;-70
2021/03/12 01:43:04;;;;;;;6.10;4.50;;;9.60;35.10;;;;;;5073273;28;20446;-70
2021/03/12 01:45:42;;;;;;;2.03;1.50;;;9.70;35.40;;;;;;5073238;28;20421;-70
2021/03/12 01:48:10;;;;;;;1.43;1.33;;;9.60;36.00;;;;;;5072931;28;20456;-71
2021/03/12 01:50:36;;;;;;;2.13;1.50;;;9.60;34.80;;;;;;5071961;28;20824;-68
2021/03/12 01:53:03;;;;;;;2.97;1.97;;;9.70;34.90;;;;;;5073343;28;20464;-69
2021/03/12 01:55:34;;;;;;;3.40;1.50;;;9.60;35.60;;;;;;5073323;28;20409;-71
2021/03/12 01:58:01;;;;;;;2.10;1.90;;;9.70;36.20;;;;;;5073118;28;20474;-71
2021/03/12 02:00:28;;;;;;;5.17;1.83;;;9.60;35.10;;;;;;5073284;28;20846;-69
2021/03/12 02:02:54;;;;;;;1.47;1.43;;;9.60;36.70;;;;;;5073323;28;20449;-70
2021/03/12 02:05:20;;;;;;;1.50;1.40;;;9.60;38.90;;;;;;5072130;28;20750;-68
2021/03/12 02:07:46;;;;;;;2.53;1.60;;;9.60;38.00;;;;;;5072920;28;20468;-70
2021/03/12 02:10:16;;;;;;;2.30;1.80;;;9.40;37.30;;;;;;5072988;28;20175;-70
2021/03/12 02:13:00;;;;;;;3.83;1.80;;;9.30;37.80;;;;;;5072820;28;20610;-70
2021/03/12 02:15:41;;;;;;;2.00;1.47;;;9.40;37.50;;;;;;5072898;28;20402;-70
2021/03/12 02:18:22;;;;;;;1.50;1.40;;;9.30;38.30;;;;;;5072632;28;20940;-70
2021/03/12 02:21:08;;;;;;;2.10;1.50;;;9.30;37.80;;;;;;5072707;28;20936;-71
2021/03/12 02:23:59;;;;;;;1.67;1.57;;;9.20;37.50;;;;;;5072677;28;20763;-71
2021/03/12 02:26:39;;;;;;;2.20;1.70;;;9.40;37.90;;;;;;5072526;28;20453;-71
2021/03/12 02:29:12;;;;;;;2.23;1.70;;;9.30;37.10;;;;;;5072460;28;20432;-67
2021/03/12 02:31:39;;;;;;;2.13;1.97;;;9.30;37.50;;;;;;5072510;28;20912;-71
2021/03/12 02:34:08;;;;;;;1.83;1.73;;;9.10;37.90;;;;;;5069123;28;20422;-71
2021/03/12 02:36:37;;;;;;;1.83;1.57;;;9.30;38.50;;;;;;5070772;28;20472;-70
2021/03/12 02:39:06;;;;;;;1.67;1.50;;;9.40;38.40;;;;;;5054647;28;20442;-69
2021/03/12 02:41:32;;;;;;;2.27;1.70;;;9.30;37.10;;;;;;5052088;28;20520;-70
2021/03/12 02:43:58;;;;;;;1.60;1.50;;;9.20;36.30;;;;;;5052104;28;20427;-69
2021/03/12 02:46:25;;;;;;;2.10;1.60;;;8.90;36.60;;;;;;5064182;28;20453;-70
2021/03/12 02:48:52;;;;;;;1.73;1.50;;;9.00;36.70;;;;;;5071908;28;20418;-71
2021/03/12 02:51:19;;;;;;;3.10;2.00;;;8.90;36.60;;;;;;5072016;28;20453;-71
2021/03/12 02:53:46;;;;;;;2.70;1.90;;;8.90;37.50;;;;;;5071816;28;20405;-70
2021/03/12 02:56:13;;;;;;;1.67;1.57;;;9.10;37.00;;;;;;5071853;28;20896;-69
2021/03/12 02:58:42;;;;;;;1.93;1.40;;;8.90;35.60;;;;;;5071566;28;20496;-70
2021/03/12 03:01:08;;;;;;;4.90;2.00;;;9.00;36.40;;;;;;5058885;28;20476;-71
2021/03/12 03:03:35;;;;;;;2.20;2.00;;;9.10;36.00;;;;;;5051770;28;20953;-69
2021/03/12 03:06:02;;;;;;;2.43;1.80;;;9.20;35.60;;;;;;5051624;28;20411;-70
2021/03/12 03:08:29;;;;;;;3.90;1.70;;;9.10;34.60;;;;;;5051486;28;20420;-70
2021/03/12 03:10:58;;;;;;;4.67;1.93;;;9.10;35.00;;;;;;5051503;28;21096;-71
2021/03/12 03:13:31;;;;;;;1.57;1.47;;;9.00;35.10;;;;;;5051483;28;20407;-70
2021/03/12 03:15:57;;;;;;;2.23;2.03;;;9.00;34.70;;;;;;5051649;28;20683;-69
2021/03/12 03:18:24;;;;;;;2.10;2.00;;;9.10;35.30;;;;;;5051345;28;20498;-70
2021/03/12 03:20:50;;;;;;;1.93;1.60;;;9.10;35.00;;;;;;5051489;28;20473;-69
2021/03/12 03:23:15;;;;;;;5.00;2.27;;;9.10;36.00;;;;;;5051484;28;20434;-70
2021/03/12 03:25:41;;;;;;;2.10;1.90;;;9.10;36.10;;;;;;5051519;28;20473;-71
2021/03/12 03:28:07;;;;;;;2.87;1.50;;;9.20;36.50;;;;;;5051203;28;20200;-71
2021/03/12 03:30:33;;;;;;;1.63;1.20;;;9.20;34.80;;;;;;5051316;28;20172;-70
2021/03/12 03:32:59;;;;;;;2.27;2.00;;;9.20;34.40;;;;;;5051715;28;20437;-70
2021/03/12 03:35:24;;;;;;;2.27;1.60;;;9.10;33.60;;;;;;5051451;28;20898;-69
2021/03/12 03:37:50;;;;;;;2.67;1.70;;;9.10;35.20;;;;;;5051029;28;20418;-71
2021/03/12 03:40:16;;;;;;;1.50;1.40;;;9.20;34.40;;;;;;5051231;28;20179;-71
2021/03/12 03:42:46;;;;;;;2.37;1.77;;;9.20;34.40;;;;;;5051042;28;20200;-71
2021/03/12 03:45:12;;;;;;;1.50;1.40;;;9.20;34.20;;;;;;5051153;28;20544;-70
2021/03/12 03:47:39;;;;;;;3.17;1.70;;;9.20;33.40;;;;;;5049928;28;20458;-70
2021/03/12 03:50:06;;;;;;;1.63;1.53;;;9.20;33.30;;;;;;5051090;28;20414;-71
2021/03/12 03:52:32;;;;;;;3.23;1.30;;;9.00;33.50;;;;;;5050855;28;20426;-70
2021/03/12 03:54:58;;;;;;;4.13;2.53;;;8.80;32.40;;;;;;5049644;28;20848;-71
2021/03/12 03:57:26;;;;;;;3.77;1.83;;;8.70;32.00;;;;;;5050779;28;20442;-71
2021/03/12 03:59:53;;;;;;;3.13;1.80;;;8.70;33.00;;;;;;5050897;28;20421;-69
2021/03/12 04:02:19;;;;;;;2.60;1.80;;;8.70;31.90;;;;;;5050907;28;21108;-70
2021/03/12 04:04:48;;;;;;;3.03;1.77;;;8.70;31.70;;;;;;5049786;28;20506;-69
2021/03/12 04:07:15;;;;;;;1.77;1.67;;;8.60;31.90;;;;;;5049641;28;20461;-69
2021/03/12 04:09:41;;;;;;;4.67;2.07;;;8.80;32.30;;;;;;5051027;28;20931;-70
2021/03/12 04:12:08;;;;;;;2.30;1.50;;;8.60;30.90;;;;;;5050906;28;20537;-71
2021/03/12 04:14:34;;;;;;;4.80;2.00;;;8.60;30.80;;;;;;5049613;28;20426;-70
2021/03/12 04:17:00;;;;;;;2.60;2.23;;;8.60;30.30;;;;;;5051108;28;20490;-71
2021/03/12 04:19:26;;;;;;;2.60;1.50;;;8.60;30.60;;;;;;5050749;28;20448;-71
2021/03/12 04:21:52;;;;;;;2.30;2.10;;;8.50;30.00;;;;;;5049596;28;20530;-71
2021/03/12 04:24:18;;;;;;;2.03;1.67;;;8.50;30.60;;;;;;5049587;28;20271;-69
2021/03/12 04:26:45;;;;;;;3.83;1.90;;;8.70;29.70;;;;;;5051049;28;20208;-70
2021/03/12 04:29:12;;;;;;;1.73;1.63;;;8.60;30.10;;;;;;5050660;28;20414;-70
2021/03/12 04:31:38;;;;;;;3.90;2.93;;;8.50;29.50;;;;;;5050531;28;20450;-69
2021/03/12 04:34:03;;;;;;;1.63;1.53;;;8.50;30.80;;;;;;5050574;28;20414;-71
2021/03/12 04:36:30;;;;;;;2.23;1.77;;;8.60;29.60;;;;;;5050649;28;20187;-70
2021/03/12 04:38:56;;;;;;;4.47;2.00;;;8.50;28.70;;;;;;5050080;28;20267;-69
2021/03/12 04:41:21;;;;;;;2.30;1.80;;;8.50;29.20;;;;;;5050538;28;20493;-70
2021/03/12 04:43:47;;;;;;;1.90;1.77;;;8.50;29.10;;;;;;5050676;28;20180;-70
2021/03/12 04:46:13;;;;;;;5.30;1.87;;;8.70;29.30;;;;;;5050583;28;20188;-71
2021/03/12 04:48:41;;;;;;;2.90;1.70;;;8.80;28.70;;;;;;5050413;28;20543;-72
2021/03/12 04:51:09;;;;;;;2.20;1.87;;;8.80;28.80;;;;;;5050649;28;20192;-72
2021/03/12 04:53:35;;;;;;;2.80;2.20;;;8.70;28.10;;;;;;5050621;28;20909;-70
2021/03/12 04:56:03;;;;;;;6.80;2.10;;;8.70;28.50;;;;;;5050663;28;20514;-71
2021/03/12 04:58:30;;;;;;;3.53;2.00;;;8.60;29.10;;;;;;5052067;28;20909;-71
2021/03/12 05:00:56;;;;;;;1.93;1.73;;;8.60;28.70;;;;;;5054227;28;20422;-71
2021/03/12 05:03:22;;;;;;;2.47;1.80;;;8.70;28.10;;;;;;5054223;28;20412;-72
2021/03/12 05:05:50;;;;;;;7.20;2.30;;;8.70;28.40;;;;;;5054121;28;20485;-71
2021/03/12 05:08:16;;;;;;;1.53;1.43;;;8.70;28.70;;;;;;5053738;28;20454;-72
2021/03/12 05:11:01;;;;;;;5.70;2.00;;;8.70;28.50;;;;;;5053912;28;20406;-72
2021/03/12 05:13:26;;;;;;;3.20;1.70;;;8.90;28.60;;;;;;5053974;28;20475;-72
2021/03/12 05:15:52;;;;;;;4.57;1.70;;;8.80;27.80;;;;;;5053981;28;20444;-71
2021/03/12 05:18:18;;;;;;;4.00;2.43;;;8.80;28.50;;;;;;5053613;28;20225;-70
2021/03/12 05:20:44;;;;;;;1.80;1.70;;;8.90;28.50;;;;;;5053624;28;20204;-71
2021/03/12 05:23:09;;;;;;;4.90;1.87;;;9.00;28.80;;;;;;5053599;28;20413;-70
2021/03/12 05:25:35;;;;;;;3.47;2.10;;;9.00;28.60;;;;;;5053709;28;20263;-71
2021/03/12 05:28:00;;;;;;;4.20;2.23;;;9.00;28.20;;;;;;5053465;28;20196;-75
2021/03/12 05:30:26;;;;;;;3.37;2.07;;;9.10;28.30;;;;;;5053609;28;20643;-71
2021/03/12 05:32:52;;;;;;;2.23;2.07;;;9.10;28.40;;;;;;5053537;28;20222;-72
2021/03/12 05:35:17;;;;;;;7.13;2.37;;;9.10;28.60;;;;;;5056349;28;20989;-67
2021/03/12 05:37:43;;;;;;;1.73;1.63;;;9.20;28.40;;;;;;5053035;28;20168;-67
2021/03/12 05:40:09;;;;;;;4.30;2.20;;;9.10;28.70;;;;;;5067832;28;20186;-65
2021/03/12 05:42:36;;;;;;;5.60;1.60;;;9.10;28.50;;;;;;5073286;28;20191;-67
2021/03/12 05:45:02;;;;;;;4.27;2.00;;;9.20;28.80;;;;;;5072544;28;20413;-66
2021/03/12 05:47:27;;;;;;;3.33;1.67;;;9.20;29.00;;;;;;5053030;28;20999;-67
2021/03/12 05:49:55;;;;;;;3.90;1.53;;;9.10;28.60;;;;;;5053190;28;20165;-68
2021/03/12 05:52:20;;;;;;;2.87;1.93;;;9.10;28.80;;;;;;5053070;28;20270;-68
2021/03/12 05:54:46;;;;;;;3.47;2.00;;;9.10;28.80;;;;;;5053193;28;20505;-67
2021/03/12 05:57:11;;;;;;;2.87;1.63;;;9.00;29.20;;;;;;5052940;28;20589;-66
2021/03/12 05:59:39;;;;;;;4.50;1.90;;;9.30;28.90;;;;;;5053115;28;20176;-66
2021/03/12 06:02:04;;;;;;;3.10;2.10;;;9.30;29.00;;;;;;5052779;28;20196;-66
2021/03/12 06:04:30;;;;;;;2.30;1.93;;;9.20;29.10;;;;;;5052820;28;20421;-67
2021/03/12 06:06:56;;;;;;;2.80;1.80;;;9.10;29.20;;;;;;5052823;28;20200;-66
2021/03/12 06:09:22;;;;;;;4.73;2.37;;;9.20;28.90;;;;;;5051981;28;20172;-67
2021/03/12 06:11:50;;;;;;;4.07;1.90;;;9.30;29.30;;;;;;5052935;28;20427;-66
2021/03/12 06:14:16;;;;;;;3.20;1.80;;;9.20;29.40;;;;;;5053186;28;20167;-67
2021/03/12 06:16:48;;;;;;;2.80;1.80;;;9.30;29.20;;;;;;5052917;28;20414;-67
2021/03/12 06:19:21;;;;;;;4.20;2.17;;;9.20;29.20;;;;;;5052711;28;20198;-69
2021/03/12 06:21:48;;;;;;;3.00;2.33;;;9.60;35.20;;;;;;5052269;28;20795;-67
2021/03/12 06:24:25;;;;;;;5.40;2.67;;;10.20;38.30;;;;;;5050764;28;20449;-68
2021/03/12 06:26:50;;;;;;;5.63;2.23;;;10.40;33.30;;;;;;5051855;28;20540;-67
2021/03/12 06:29:16;;;;;;;2.23;2.00;;;10.20;33.50;;;;;;5051852;28;20510;-68
2021/03/12 06:31:52;;;;;;;4.47;2.37;;;10.30;34.80;;;;;;5052361;28;20195;-67
2021/03/12 06:34:18;;;;;;;4.80;2.87;;;11.00;36.00;;;;;;5050928;28;20171;-69
2021/03/12 06:36:44;;;;;;;4.90;2.43;;;11.20;37.00;;;;;;5051034;28;20424;-68
2021/03/12 06:39:10;;;;;;;3.43;2.20;;;11.40;28.40;;;;;;5050666;28;20219;-68
2021/03/12 06:41:40;;;;;;;4.47;1.80;;;11.30;29.20;;;;;;5052159;28;20529;-69
2021/03/12 06:44:26;;;;;;;4.93;1.93;;;11.00;33.30;;;;;;5052122;28;20480;-67
2021/03/12 06:46:51;;;;;;;2.63;1.77;;;11.00;31.70;;;;;;5050710;28;20454;-68
2021/03/12 06:49:17;;;;;;;1.83;1.73;;;10.60;29.20;;;;;;5054266;28;20840;-69
2021/03/12 06:51:58;;;;;;;3.60;1.50;;;10.30;28.50;;;;;;5071810;28;20209;-69
2021/03/12 06:54:26;;;;;;;5.43;2.60;;;10.00;29.30;;;;;;5071944;28;20250;-69
2021/03/12 06:56:52;;;;;;;2.77;1.80;;;9.90;31.00;;;;;;5066424;28;20426;-69
2021/03/12 06:59:29;;;;;;;6.20;2.77;;;9.70;30.30;;;;;;5051736;28;20432;-68
2021/03/12 07:02:03;;;;;;;3.60;2.10;;;9.60;30.70;;;;;;5051734;28;20430;-68
2021/03/12 07:04:30;;;;;;;2.87;2.40;;;9.60;30.90;;;;;;5051772;28;20749;-69
2021/03/12 07:06:58;;;;;;;2.40;1.93;;;9.50;31.30;;;;;;5051624;28;20458;-68
2021/03/12 07:09:25;;;;;;;3.60;2.23;;;9.50;31.30;;;;;;5051707;28;20426;-67
2021/03/12 07:12:02;;;;;;;5.20;2.37;;;9.30;31.90;;;;;;5051861;28;20480;-68
2021/03/12 07:14:30;;;;;;;10.40;2.90;;;9.20;33.00;;;;;;5051655;28;20413;-68
2021/03/12 07:16:57;;;;;;;27.83;3.57;;;9.10;33.10;;;;;;5051370;28;20517;-68
2021/03/12 07:19:23;;;;;;;8.27;2.40;;;8.80;35.40;;;;;;5051249;28;20454;-69
2021/03/12 07:21:56;;;;;;;5.03;2.40;;;8.80;35.90;;;;;;5056671;28;20473;-69
2021/03/12 07:24:22;;;;;;;4.50;2.17;;;8.80;35.50;;;;;;5071303;28;20178;-68
2021/03/12 07:26:58;;;;;;;2.10;2.00;;;8.90;35.80;;;;;;5051738;28;20994;-69
2021/03/12 07:29:28;;;;;;;2.47;2.20;;;8.70;36.10;;;;;;5060015;28;20440;-68
2021/03/12 07:31:55;;;;;;;3.03;2.70;;;8.70;36.10;;;;;;5071076;28;20432;-68
2021/03/12 07:34:25;;;;;;;3.80;1.90;;;8.80;35.30;;;;;;5071062;28;20405;-68
2021/03/12 07:36:55;;;;;;;2.10;2.00;;;8.80;35.60;;;;;;5064559;28;20931;-69
2021/03/12 07:39:24;;;;;;;3.13;2.10;;;9.10;34.90;;;;;;5049243;28;20445;-68
2021/03/12 07:41:51;;;;;;;2.23;2.00;;;9.00;35.40;;;;;;5062216;28;20437;-68
2021/03/12 07:44:19;;;;;;;3.40;2.10;;;9.00;36.60;;;;;;5065376;28;20426;-71
2021/03/12 07:46:47;;;;;;;2.83;2.13;;;9.00;38.00;;;;;;5050678;28;20961;-69
2021/03/12 07:49:28;;;;;;;2.53;2.10;;;9.10;38.10;;;;;;5050609;28;20469;-68
2021/03/12 07:51:54;;;;;;;2.90;1.80;;;9.10;37.80;;;;;;5061870;28;20452;-67
2021/03/12 07:54:35;;;;;;;2.13;2.00;;;9.30;38.70;;;;;;5070449;28;20839;-68
2021/03/12 07:57:02;;;;;;;4.13;2.47;;;9.20;37.30;;;;;;5054183;28;20498;-73
2021/03/12 07:59:57;;;;;;;4.23;2.10;;;9.10;39.50;;;;;;5050295;28;20414;-70
2021/03/12 08:02:23;;;;;;;1.90;1.80;;;9.00;39.20;;;;;;5050483;28;20465;-74
2021/03/12 08:04:49;;;;;;;4.43;2.03;;;8.90;38.90;;;;;;5060660;28;20445;-73
2021/03/12 08:07:17;;;;;;;2.60;1.60;;;8.80;39.30;;;;;;5069977;28;20273;-73
2021/03/12 08:09:48;;;;;;;2.37;2.17;;;8.80;39.60;;;;;;5053739;28;20415;-72
2021/03/12 08:12:33;;;;;;;3.43;1.83;;;9.10;39.80;;;;;;5063842;28;20426;-67
2021/03/12 08:15:21;;;;;;;2.67;2.20;;;9.10;39.00;;;;;;5063877;28;20413;-70
2021/03/12 08:18:07;;;;;;;2.13;1.50;;;9.00;39.10;;;;;;5063083;28;20420;-70
2021/03/12 08:20:43;;;;;;;1.97;1.83;;;9.20;37.30;;;;;;5071450;28;20406;-72
2021/03/12 08:23:14;;;;;;;2.30;2.00;;;9.30;37.70;;;;;;5071116;28;20739;-70
2021/03/12 08:25:44;;;;;;;2.20;2.00;;;9.40;37.00;;;;;;5069766;28;20422;-73
2021/03/12 08:28:13;;;;;;;3.10;2.03;;;9.30;37.20;;;;;;5070473;28;20461;-74
2021/03/12 08:30:38;;;;;;;2.00;1.90;;;9.40;38.30;;;;;;5070797;28;20428;-71
2021/03/12 08:33:09;;;;;;;7.90;2.70;;;9.70;34.50;;;;;;5072310;28;20406;-73
2021/03/12 08:35:39;;;;;;;2.47;1.90;;;9.60;35.70;;;;;;5073098;28;20171;-72
2021/03/12 08:38:10;;;;;;;31.80;6.70;;;9.80;37.50;;;;;;5074282;28;20444;-70
2021/03/12 08:40:42;;;;;;;36.80;7.83;;;9.70;33.80;;;;;;5074314;28;20405;-72
2021/03/12 08:43:15;;;;;;;6.27;2.30;;;9.80;34.20;;;;;;5073467;28;20409;-74
2021/03/12 08:45:53;;;;;;;14.47;3.57;;;9.80;33.30;;;;;;5074346;28;20414;-75
2021/03/12 08:48:29;;;;;;;4.27;2.40;;;9.80;34.70;;;;;;5074261;28;20457;-73
2021/03/12 08:50:59;;;;;;;3.10;1.63;;;10.00;33.10;;;;;;5074452;28;20423;-72
2021/03/12 08:53:26;;;;;;;4.07;1.90;;;9.80;31.80;;;;;;5072017;28;20418;-72
2021/03/12 08:55:53;;;;;;;3.20;1.60;;;9.80;31.50;;;;;;5071620;28;20463;-70
2021/03/12 08:58:21;;;;;;;2.70;1.30;;;9.60;32.10;;;;;;5072892;28;20413;-70
2021/03/12 09:00:52;;;;;;;2.50;1.60;;;9.60;31.40;;;;;;5073524;28;20410;-70
2021/03/12 09:03:17;;;;;;;1.93;1.60;;;9.70;31.80;;;;;;5074391;28;20471;-70
2021/03/12 09:05:44;;;;;;;6.27;1.70;;;9.70;31.80;;;;;;5067752;28;20430;-72
2021/03/12 09:08:10;;;;;;;2.60;1.80;;;9.70;32.10;;;;;;5063188;28;20603;-68
2021/03/12 09:10:36;;;;;;;1.87;1.60;;;9.80;30.80;;;;;;5053953;28;20418;-73
2021/03/12 09:13:02;;;;;;;2.73;2.53;;;9.70;32.10;;;;;;5057445;28;20180;-73
2021/03/12 09:15:28;;;;;;;1.90;1.40;;;9.80;32.20;;;;;;5074126;28;20405;-70
2021/03/12 09:17:58;;;;;;;2.00;1.40;;;10.00;31.00;;;;;;5058308;28;20900;-71
2021/03/12 09:20:25;;;;;;;1.63;1.53;;;10.20;31.70;;;;;;5056038;28;20785;-71
2021/03/12 09:22:52;;;;;;;2.73;1.30;;;10.10;29.00;;;;;;5060119;28;20958;-72
2021/03/12 09:25:32;;;;;;;2.50;1.80;;;10.20;27.70;;;;;;5073780;28;20827;-70
2021/03/12 09:27:59;;;;;;;3.10;2.90;;;10.20;27.40;;;;;;5073405;28;20511;-72
2021/03/12 09:30:28;;;;;;;4.20;1.70;;;10.20;27.70;;;;;;5073922;28;20405;-69
2021/03/12 09:32:53;;;;;;;1.90;1.80;;;10.10;28.10;;;;;;5073514;28;20444;-69
2021/03/12 09:35:19;;;;;;;1.93;1.77;;;10.10;28.70;;;;;;5073559;28;20904;-71
2021/03/12 09:37:45;;;;;;;1.73;1.57;;;10.30;29.30;;;;;;5073347;28;20658;-72
2021/03/12 09:40:31;;;;;;;2.77;1.50;;;10.40;28.40;;;;;;5074053;28;20448;-71
2021/03/12 09:42:57;;;;;;;5.93;2.30;;;10.30;27.40;;;;;;5073558;28;20171;-71
2021/03/12 09:45:24;;;;;;;1.90;1.80;;;10.30;27.40;;;;;;5073655;28;20414;-72
2021/03/12 09:47:51;;;;;;;2.00;1.27;;;10.40;27.40;;;;;;5075173;28;20235;-72
2021/03/12 09:50:18;;;;;;;5.60;1.50;;;10.40;27.90;;;;;;5073825;28;20408;-69
2021/03/12 09:52:45;;;;;;;3.00;1.80;;;10.50;27.00;;;;;;5073380;28;20432;-71
2021/03/12 09:55:11;;;;;;;3.10;2.50;;;10.30;27.40;;;;;;5073182;28;20428;-70
2021/03/12 09:57:37;;;;;;;2.57;2.37;;;10.50;27.30;;;;;;5072927;28;20413;-70
2021/03/12 10:00:07;;;;;;;2.23;1.80;;;10.50;27.50;;;;;;5068097;28;20417;-72
2021/03/12 10:02:33;;;;;;;4.37;2.20;;;10.50;27.30;;;;;;5068492;28;20674;-71
2021/03/12 10:05:02;;;;;;;2.60;1.57;;;10.30;27.50;;;;;;5066634;28;20511;-69
2021/03/12 10:07:42;;;;;;;4.20;1.90;;;10.30;27.60;;;;;;5063932;28;20317;-70
2021/03/12 10:10:33;;;;;;;5.23;1.67;;;10.30;27.40;;;;;;5065579;28;20453;-71
2021/03/12 10:13:02;;;;;;;1.50;1.40;;;10.60;27.80;;;;;;5055194;28;20438;-70
2021/03/12 10:15:36;;;;;;;2.13;1.97;;;10.70;28.00;;;;;;5064155;28;20411;-70
2021/03/12 10:18:03;;;;;;;2.50;1.70;;;10.60;27.70;;;;;;5072884;28;20405;-69
2021/03/12 10:20:33;;;;;;;2.60;1.70;;;10.50;27.70;;;;;;5072796;28;20423;-70
2021/03/12 10:23:00;;;;;;;2.83;2.47;;;10.90;27.40;;;;;;5073353;28;20417;-71
2021/03/12 10:25:30;;;;;;;4.03;1.93;;;10.60;27.90;;;;;;5068682;28;20923;-72
2021/03/12 10:28:18;;;;;;;1.40;1.30;;;10.50;27.60;;;;;;5060679;28;20458;-72
2021/03/12 10:30:45;;;;;;;2.67;1.50;;;10.60;28.20;;;;;;5062956;28;20410;-72
2021/03/12 10:33:21;;;;;;;2.03;1.27;;;10.70;28.40;;;;;;5072489;28;20424;-71
2021/03/12 10:35:51;;;;;;;1.43;1.33;;;10.70;28.30;;;;;;5072096;28;20409;-71
2021/03/12 10:38:21;;;;;;;2.60;2.00;;;10.80;28.70;;;;;;5072105;28;20434;-70
2021/03/12 10:40:49;;;;;;;2.23;1.50;;;11.00;28.60;;;;;;5072318;28;20524;-74
2021/03/12 10:43:24;;;;;;;3.20;2.07;;;10.80;29.30;;;;;;5070495;28;20471;-71
2021/03/12 10:45:58;;;;;;;2.73;1.90;;;11.00;29.50;;;;;;5071944;28;20834;-74
2021/03/12 10:48:27;;;;;;;2.43;1.60;;;11.10;30.30;;;;;;5072122;28;20473;-76
2021/03/12 10:50:56;;;;;;;2.70;1.60;;;10.90;28.90;;;;;;5072446;28;21112;-73
2021/03/12 10:53:23;;;;;;;4.30;2.00;;;10.70;29.80;;;;;;5071914;28;20428;-74
2021/03/12 10:55:52;;;;;;;2.30;1.93;;;10.70;31.60;;;;;;5070128;28;20445;-71
2021/03/12 10:58:29;;;;;;;3.70;2.70;;;10.70;30.60;;;;;;5058807;28;20464;-74
2021/03/12 11:01:13;;;;;;;2.73;1.43;;;10.50;30.90;;;;;;5051235;28;20434;-74
2021/03/12 11:03:42;;;;;;;2.00;1.90;;;10.50;37.20;;;;;;5051647;28;20407;-70
2021/03/12 11:06:08;;;;;;;1.57;1.47;;;10.50;36.90;;;;;;5051468;28;20497;-73
2021/03/12 11:08:35;;;;;;;1.50;1.40;;;10.70;37.30;;;;;;5050907;28;20584;-73
2021/03/12 11:11:02;;;;;;;1.60;1.50;;;10.80;32.20;;;;;;5056996;28;20789;-73
2021/03/12 11:13:28;;;;;;;1.53;1.43;;;10.90;30.10;;;;;;5071454;28;20414;-69
2021/03/12 11:15:54;;;;;;;2.33;1.23;;;11.20;31.00;;;;;;5069769;28;20940;-75
2021/03/12 11:18:20;;;;;;;3.33;1.77;;;11.50;27.90;;;;;;5071083;28;20471;-73
2021/03/12 11:20:48;;;;;;;2.20;1.53;;;11.70;27.40;;;;;;5069463;28;20164;-74
2021/03/12 11:23:14;;;;;;;2.87;1.60;;;12.00;26.30;;;;;;5070511;28;20417;-72
2021/03/12 11:25:42;;;;;;;3.13;1.83;;;12.30;27.60;;;;;;5071089;28;20853;-75
2021/03/12 11:28:08;;;;;;;1.90;1.50;;;12.40;24.10;;;;;;5070923;28;20689;-75
2021/03/12 11:30:34;;;;;;;5.13;1.80;;;12.60;25.00;;;;;;5070529;28;20445;-73
2021/03/12 11:32:59;;;;;;;1.20;1.20;;;12.60;23.30;;;;;;5070955;28;20243;-70
2021/03/12 11:35:25;;;;;;;2.40;1.67;;;12.50;23.80;;;;;;5070876;28;20409;-69
2021/03/12 11:37:50;;;;;;;2.70;1.47;;;12.30;22.90;;;;;;5063379;28;20238;-70
2021/03/12 11:40:17;;;;;;;3.57;1.57;;;12.40;23.40;;;;;;5070962;28;20273;-70
2021/03/12 11:42:43;;;;;;;2.20;1.30;;;12.40;22.40;;;;;;5070834;28;20274;-72
2021/03/12 11:45:11;;;;;;;1.80;1.70;;;12.70;21.00;;;;;;5070549;28;20505;-69
2021/03/12 11:47:38;;;;;;;3.90;3.60;;;12.30;21.00;;;;;;5070481;28;20479;-70
2021/03/12 11:50:07;;;;;;;3.00;1.50;;;11.90;21.00;;;;;;5070583;28;20440;-67
2021/03/12 11:52:32;;;;;;;2.30;1.80;;;12.90;25.90;;;;;;5070362;28;20430;-68
2021/03/12 11:54:58;;;;;;;8.77;1.97;;;13.60;37.90;;;;;;5070924;28;20583;-69
2021/03/12 11:57:24;;;;;;;4.00;1.80;;;13.60;24.20;;;;;;5070544;28;20180;-68
2021/03/12 11:59:50;;;;;;;2.50;1.80;;;13.50;26.50;;;;;;5069435;28;20449;-69
2021/03/12 12:02:16;;;;;;;2.60;1.70;;;13.40;25.60;;;;;;5070683;28;20518;-69
2021/03/12 12:04:43;;;;;;;1.90;1.70;;;13.60;21.00;;;;;;5070421;28;20563;-68
2021/03/12 12:07:09;;;;;;;1.67;1.53;;;13.80;24.70;;;;;;5069797;28;20456;-68
2021/03/12 12:09:35;;;;;;;4.83;1.80;;;14.10;21.90;;;;;;5070202;28;20775;-71
2021/03/12 12:12:01;;;;;;;4.07;1.60;;;13.80;19.20;;;;;;5070187;28;20463;-69
2021/03/12 12:14:26;;;;;;;2.23;1.57;;;13.50;17.70;;;;;;5066845;28;20226;-71
2021/03/12 12:16:52;;;;;;;2.53;1.40;;;13.10;17.50;;;;;;5060163;28;20560;-72
2021/03/12 12:23:26;;;;;;;3.37;1.87;;;12.60;17.40;;;;;;5059991;28;20193;-68
2021/03/12 12:25:52;;;;;;;1.57;1.13;;;12.50;18.00;;;;;;5070330;28;20428;-69
2021/03/12 12:28:18;;;;;;;5.43;1.50;;;12.60;18.20;;;;;;5070776;28;20445;-69
2021/03/12 12:30:44;;;;;;;3.47;1.70;;;12.70;18.60;;;;;;5070491;28;20225;-70
2021/03/12 12:33:10;;;;;;;1.60;1.50;;;12.40;19.00;;;;;;5070731;28;20171;-74
2021/03/12 12:35:38;;;;;;;2.20;1.70;;;12.40;18.60;;;;;;5071130;28;20410;-73
2021/03/12 12:38:03;;;;;;;4.93;1.33;;;12.40;18.80;;;;;;5070405;28;20693;-75
2021/03/12 12:40:29;;;;;;;2.53;1.87;;;12.40;19.10;;;;;;5070990;28;20452;-74
2021/03/12 12:42:54;;;;;;;1.90;1.53;;;12.20;19.80;;;;;;5070874;28;20267;-74
2021/03/12 12:45:20;;;;;;;1.80;1.60;;;12.30;21.00;;;;;;5070988;28;20638;-73
2021/03/12 12:47:46;;;;;;;4.50;1.97;;;12.40;20.90;;;;;;5070782;28;20199;-74
2021/03/12 12:50:12;;;;;;;4.70;1.40;;;12.40;21.00;;;;;;5069297;28;20199;-74
2021/03/12 12:52:38;;;;;;;1.90;1.47;;;12.40;21.00;;;;;;5066182;28;20191;-74
2021/03/12 12:55:04;;;;;;;3.17;1.70;;;12.40;21.40;;;;;;5069335;28;20442;-75
2021/03/12 12:57:30;;;;;;;3.37;1.50;;;12.50;20.60;;;;;;5070644;28;20168;-72
2021/03/12 12:59:56;;;;;;;2.27;1.50;;;12.40;20.90;;;;;;5070467;28;20435;-76
2021/03/12 13:02:22;;;;;;;4.20;1.60;;;12.20;20.60;;;;;;5070163;28;20441;-74